createdAt,value
2018-07-20T00:02:09.015Z,41.90
2018-07-20T00:04:37.091Z,41.50
2018-07-20T00:07:05.406Z,41.90
2018-07-20T00:09:33.493Z,41.40
2018-07-20T00:12:01.595Z,41.60
2018-07-20T00:14:29.662Z,42.00
2018-07-20T00:16:57.756Z,42.10
2018-07-20T00:19:25.818Z,41.60
2018-07-20T00:21:53.916Z,41.80
2018-07-20T00:24:21.991Z,41.80
2018-07-20T00:29:18.007Z,41.60
2018-07-20T00:31:46.103Z,41.90
2018-07-20T00:34:14.216Z,42.00
2018-07-20T00:36:42.285Z,41.80
2018-07-20T00:39:11.236Z,41.40
2018-07-20T00:41:39.705Z,41.80
2018-07-20T00:44:07.787Z,41.90
2018-07-20T00:46:35.896Z,42.20
2018-07-20T00:49:03.960Z,42.40
2018-07-20T00:51:32.040Z,42.00
2018-07-20T00:54:00.114Z,42.30
2018-07-20T00:56:28.175Z,42.10
2018-07-20T00:58:56.256Z,42.20
2018-07-20T01:01:24.424Z,41.90
2018-07-20T01:03:52.488Z,42.20
2018-07-20T01:06:20.557Z,42.10
2018-07-20T01:08:48.735Z,42.10
2018-07-20T01:11:16.914Z,42.40
2018-07-20T01:13:44.999Z,42.40
2018-07-20T01:16:13.054Z,42.00
2018-07-20T01:18:41.136Z,42.20
2018-07-20T01:21:09.204Z,41.90
2018-07-20T01:23:37.275Z,42.10
2018-07-20T01:26:05.360Z,42.70
2018-07-20T01:28:33.707Z,41.90
2018-07-20T01:31:01.776Z,42.20
2018-07-20T01:33:29.858Z,42.10
2018-07-20T01:35:57.930Z,42.50
2018-07-20T01:38:26.091Z,42.40
2018-07-20T01:40:54.150Z,42.40
2018-07-20T01:43:22.219Z,42.40
2018-07-20T01:45:50.291Z,42.30
2018-07-20T01:48:18.371Z,42.60
2018-07-20T01:50:46.430Z,42.50
2018-07-20T01:53:14.614Z,42.30
2018-07-20T01:55:42.679Z,42.60
2018-07-20T01:58:10.738Z,42.50
2018-07-20T02:00:38.814Z,42.40
2018-07-20T02:03:07.551Z,42.20
2018-07-20T02:05:35.650Z,42.20
2018-07-20T02:08:03.743Z,42.10
2018-07-20T02:10:31.823Z,42.10
2018-07-20T02:13:00.044Z,42.10
2018-07-20T02:15:28.122Z,42.10
2018-07-20T02:17:56.202Z,42.20
2018-07-20T02:20:24.690Z,42.60
2018-07-20T02:22:52.790Z,42.70
2018-07-20T02:25:20.870Z,42.80
2018-07-20T02:27:48.946Z,42.80
2018-07-20T02:30:17.106Z,43.00
2018-07-20T02:32:45.168Z,43.10
2018-07-20T02:35:13.346Z,43.00
2018-07-20T02:37:41.410Z,43.50
2018-07-20T02:40:09.479Z,43.30
2018-07-20T02:42:37.551Z,43.60
2018-07-20T02:45:05.941Z,43.60
2018-07-20T02:47:34.028Z,43.50
2018-07-20T02:50:02.105Z,43.40
2018-07-20T02:52:30.163Z,43.40
2018-07-20T02:54:58.242Z,43.20
2018-07-20T02:57:26.307Z,43.10
2018-07-20T02:59:54.659Z,43.20
2018-07-20T03:02:22.836Z,43.30
2018-07-20T03:04:50.923Z,43.40
2018-07-20T03:07:19.059Z,43.60
2018-07-20T03:09:47.159Z,43.50
2018-07-20T03:12:15.215Z,43.60
2018-07-20T03:14:43.290Z,43.90
2018-07-20T03:17:11.542Z,44.00
2018-07-20T03:19:39.625Z,44.10
2018-07-20T03:22:07.691Z,44.20
2018-07-20T03:24:35.791Z,44.00
2018-07-20T03:27:03.871Z,44.00
2018-07-20T03:29:31.947Z,44.00
2018-07-20T03:32:00.131Z,43.70
2018-07-20T03:34:28.202Z,43.50
2018-07-20T03:36:56.288Z,43.70
2018-07-20T03:39:24.342Z,44.20
2018-07-20T03:41:52.435Z,44.10
2018-07-20T03:46:48.378Z,44.20
2018-07-20T03:49:16.440Z,44.20
2018-07-20T03:51:44.507Z,44.30
2018-07-20T03:54:12.563Z,43.60
2018-07-20T03:56:40.658Z,44.10
2018-07-20T03:59:08.746Z,44.20
2018-07-20T04:01:36.879Z,44.20
2018-07-20T04:04:04.971Z,44.40
2018-07-20T04:06:33.063Z,44.40
2018-07-20T04:09:01.135Z,44.00
2018-07-20T04:11:29.226Z,43.90
2018-07-20T04:13:57.318Z,43.80
2018-07-20T04:16:25.382Z,43.70
2018-07-20T04:18:53.695Z,43.80
2018-07-20T04:21:21.789Z,44.00
2018-07-20T04:23:49.867Z,43.80
2018-07-20T04:26:17.930Z,43.70
2018-07-20T04:28:46.006Z,43.70
2018-07-20T04:31:14.084Z,44.20
2018-07-20T04:33:42.142Z,44.80
2018-07-20T04:36:10.214Z,44.90
2018-07-20T04:38:38.294Z,45.20
2018-07-20T04:41:06.539Z,45.20
2018-07-20T04:43:34.607Z,45.00
2018-07-20T04:46:02.734Z,45.00
2018-07-20T04:48:30.899Z,45.20
2018-07-20T04:50:59.007Z,45.20
2018-07-20T04:53:27.478Z,45.20
2018-07-20T04:55:55.582Z,45.20
2018-07-20T04:58:23.651Z,45.30
2018-07-20T05:00:51.751Z,45.20
2018-07-20T05:03:19.847Z,44.90
2018-07-20T05:05:48.058Z,44.80
2018-07-20T05:08:16.070Z,44.80
2018-07-20T05:10:44.162Z,45.00
2018-07-20T05:13:12.243Z,45.10
2018-07-20T05:15:40.333Z,45.30
2018-07-20T05:18:08.390Z,45.20
2018-07-20T05:20:36.531Z,45.00
2018-07-20T05:23:05.062Z,44.70
2018-07-20T05:25:33.136Z,45.00
2018-07-20T05:28:01.291Z,45.00
2018-07-20T05:30:29.398Z,45.10
2018-07-20T05:32:57.529Z,45.10
2018-07-20T05:35:25.657Z,45.10
2018-07-20T05:37:53.724Z,45.10
2018-07-20T05:40:21.782Z,45.20
2018-07-20T05:42:49.870Z,45.40
2018-07-20T05:45:18.199Z,45.30
2018-07-20T05:47:46.313Z,45.50
2018-07-20T05:50:14.371Z,45.60
2018-07-20T05:52:42.453Z,45.70
2018-07-20T05:55:10.546Z,45.80
2018-07-20T05:57:38.648Z,45.70
2018-07-20T06:00:06.733Z,45.60
2018-07-20T06:02:34.891Z,45.60
2018-07-20T06:05:02.982Z,45.90
2018-07-20T06:07:31.407Z,47.40
2018-07-20T06:09:59.487Z,46.80
2018-07-20T06:12:27.570Z,46.30
2018-07-20T06:14:55.678Z,46.20
2018-07-20T06:17:23.763Z,45.60
2018-07-20T06:19:51.831Z,44.80
2018-07-20T06:22:19.915Z,44.90
2018-07-20T06:24:47.986Z,44.50
2018-07-20T06:27:16.065Z,44.30
2018-07-20T06:29:44.577Z,44.20
2018-07-20T06:32:12.854Z,44.10
2018-07-20T06:34:40.927Z,44.00
2018-07-20T06:37:09.011Z,43.90
2018-07-20T06:39:37.074Z,44.60
2018-07-20T06:42:05.254Z,43.80
2018-07-20T06:44:33.862Z,43.80
2018-07-20T06:47:01.934Z,43.70
2018-07-20T06:49:30.178Z,44.40
2018-07-20T06:51:58.242Z,44.80
2018-07-20T06:54:26.314Z,45.50
2018-07-20T06:56:54.387Z,44.80
2018-07-20T06:59:22.962Z,45.10
2018-07-20T07:01:51.070Z,45.50
2018-07-20T07:04:19.182Z,45.80
2018-07-20T07:06:47.283Z,46.00
2018-07-20T07:09:15.350Z,46.20
2018-07-20T07:11:43.419Z,46.20
2018-07-20T07:14:11.499Z,46.30
2018-07-20T07:16:39.599Z,46.30
2018-07-20T07:19:07.673Z,46.40
2018-07-20T07:21:35.768Z,46.30
2018-07-20T07:24:03.871Z,46.30
2018-07-20T07:26:32.259Z,46.30
2018-07-20T07:29:00.331Z,46.90
2018-07-20T07:31:28.395Z,46.40
2018-07-20T07:33:56.531Z,46.40
2018-07-20T07:36:24.618Z,46.40
2018-07-20T07:38:52.690Z,46.40
2018-07-20T07:41:20.779Z,46.40
2018-07-20T07:43:48.891Z,46.40
2018-07-20T07:46:17.063Z,46.30
2018-07-20T07:48:45.142Z,46.40
2018-07-20T07:51:13.215Z,46.40
2018-07-20T07:53:41.394Z,46.40
2018-07-20T07:56:09.569Z,46.40
2018-07-20T07:58:37.911Z,46.40
2018-07-20T08:01:06.240Z,46.40
2018-07-20T08:03:34.435Z,46.40
2018-07-20T08:06:02.755Z,46.30
2018-07-20T08:08:30.830Z,46.30
2018-07-20T08:10:58.950Z,46.40
2018-07-20T08:13:27.038Z,46.30
2018-07-20T08:15:55.166Z,46.40
2018-07-20T08:18:23.522Z,46.40
2018-07-20T08:20:51.612Z,46.40
2018-07-20T08:23:19.795Z,46.40
2018-07-20T08:25:47.871Z,46.30
2018-07-20T08:28:15.963Z,46.20
2018-07-20T08:30:44.014Z,46.30
2018-07-20T08:33:12.144Z,46.30
2018-07-20T08:35:40.213Z,46.30
2018-07-20T08:38:08.299Z,46.30
2018-07-20T08:40:36.387Z,46.30
2018-07-20T08:43:04.469Z,46.40
2018-07-20T08:45:32.551Z,46.30
2018-07-20T08:48:00.625Z,46.30
2018-07-20T08:50:28.702Z,46.30
2018-07-20T08:52:56.788Z,46.40
2018-07-20T08:55:24.867Z,46.40
2018-07-20T08:57:52.954Z,46.30
2018-07-20T09:00:21.023Z,46.30
2018-07-20T09:02:49.099Z,46.20
2018-07-20T09:05:17.171Z,46.00
2018-07-20T09:07:45.266Z,45.70
2018-07-20T09:10:13.372Z,45.90
2018-07-20T09:12:41.435Z,46.10
2018-07-20T09:15:09.515Z,46.20
2018-07-20T09:17:37.875Z,46.20
2018-07-20T09:20:05.957Z,46.30
2018-07-20T09:22:34.059Z,46.30
2018-07-20T09:25:02.119Z,46.40
2018-07-20T09:27:30.189Z,46.40
2018-07-20T09:29:58.262Z,46.40
2018-07-20T09:32:26.349Z,46.40
2018-07-20T09:34:54.822Z,46.50
2018-07-20T09:37:22.891Z,46.50
2018-07-20T09:39:50.963Z,46.50
2018-07-20T09:42:19.122Z,46.50
2018-07-20T09:44:47.238Z,46.50
2018-07-20T09:47:15.605Z,46.50
2018-07-20T09:49:43.702Z,46.60
2018-07-20T09:52:11.758Z,46.60
2018-07-20T09:54:39.859Z,46.60
2018-07-20T09:57:07.975Z,46.60
2018-07-20T09:59:36.148Z,46.70
2018-07-20T10:02:04.155Z,46.70
2018-07-20T10:04:32.227Z,46.70
2018-07-20T10:07:00.312Z,46.80
2018-07-20T10:09:29.294Z,46.80
2018-07-20T10:11:57.383Z,46.90
2018-07-20T10:14:25.457Z,46.90
2018-07-20T10:16:53.511Z,46.90
2018-07-20T10:19:21.625Z,47.00
2018-07-20T10:21:49.796Z,47.00
2018-07-20T10:24:18.135Z,46.90
2018-07-20T10:26:46.485Z,46.90
2018-07-20T10:29:14.563Z,47.50
2018-07-20T10:31:42.626Z,46.90
2018-07-20T10:34:10.691Z,46.90
2018-07-20T10:36:38.768Z,47.00
2018-07-20T10:39:08.383Z,46.90
2018-07-20T10:41:36.615Z,47.00
2018-07-20T10:44:04.703Z,46.90
2018-07-20T10:46:33.023Z,46.90
2018-07-20T10:49:01.307Z,46.90
2018-07-20T10:51:29.507Z,47.00
2018-07-20T10:53:57.586Z,47.00
2018-07-20T10:56:25.665Z,46.90
2018-07-20T10:58:54.483Z,46.90
2018-07-20T11:01:22.584Z,46.90
2018-07-20T11:03:50.663Z,46.80
2018-07-20T11:06:18.931Z,46.90
2018-07-20T11:11:15.236Z,46.90
2018-07-20T11:13:43.370Z,47.00
2018-07-20T11:16:11.436Z,47.00
2018-07-20T11:18:39.522Z,47.00
2018-07-20T11:21:07.623Z,47.00
2018-07-20T11:23:35.688Z,47.00
2018-07-20T11:26:03.750Z,47.00
2018-07-20T11:28:31.818Z,47.10
2018-07-20T11:30:59.914Z,47.70
2018-07-20T11:33:27.986Z,48.00
2018-07-20T11:35:56.059Z,48.10
2018-07-20T11:38:24.127Z,47.70
2018-07-20T11:40:52.230Z,48.40
2018-07-20T11:43:20.414Z,47.40
2018-07-20T11:45:48.487Z,47.50
2018-07-20T11:48:16.591Z,48.10
2018-07-20T11:50:44.666Z,48.70
2018-07-20T11:53:12.963Z,48.80
2018-07-20T11:55:41.040Z,49.20
2018-07-20T11:58:09.142Z,49.30
2018-07-20T12:00:37.398Z,48.70
2018-07-20T12:03:05.530Z,48.50
2018-07-20T12:05:33.602Z,49.90
2018-07-20T12:08:01.679Z,52.80
2018-07-20T12:10:30.078Z,53.30
2018-07-20T12:12:58.159Z,52.60
2018-07-20T12:15:26.262Z,55.80
2018-07-20T12:17:54.560Z,52.00
2018-07-20T12:20:22.663Z,50.50
2018-07-20T12:22:50.751Z,49.80
2018-07-20T12:25:18.831Z,49.60
2018-07-20T12:27:46.919Z,49.60
2018-07-20T12:30:15.028Z,49.90
2018-07-20T12:32:43.115Z,50.10
2018-07-20T12:35:11.231Z,52.90
2018-07-20T12:37:39.310Z,52.30
2018-07-20T12:40:07.388Z,52.00
2018-07-20T12:42:35.935Z,52.20
2018-07-20T12:45:03.995Z,51.30
2018-07-20T12:47:32.059Z,50.70
2018-07-20T12:50:00.134Z,50.90
2018-07-20T12:52:28.215Z,50.70
2018-07-20T12:54:56.527Z,50.50
2018-07-20T12:57:24.613Z,49.80
2018-07-20T12:59:52.714Z,49.30
2018-07-20T13:02:20.817Z,49.40
2018-07-20T13:04:48.983Z,49.40
2018-07-20T13:07:17.078Z,49.40
2018-07-20T13:09:45.228Z,49.50
2018-07-20T13:12:13.345Z,49.40
2018-07-20T13:14:41.386Z,49.50
2018-07-20T13:17:09.490Z,49.40
2018-07-20T13:19:37.542Z,50.60
2018-07-20T13:22:06.287Z,50.60
2018-07-20T13:24:34.376Z,51.10
2018-07-20T13:27:02.815Z,50.00
2018-07-20T13:29:30.890Z,50.90
2018-07-20T13:31:58.995Z,49.90
2018-07-20T13:34:27.062Z,49.20
2018-07-20T13:36:55.147Z,48.30
2018-07-20T13:39:23.256Z,48.30
2018-07-20T13:41:51.358Z,48.30
2018-07-20T13:44:19.423Z,48.10
2018-07-20T13:46:47.955Z,48.20
2018-07-20T13:49:16.091Z,48.20
2018-07-20T13:51:44.166Z,48.90
2018-07-20T13:54:12.234Z,50.10
2018-07-20T13:56:40.698Z,49.70
2018-07-20T13:59:08.781Z,50.30
2018-07-20T14:01:36.862Z,49.70
2018-07-20T14:04:05.113Z,49.40
2018-07-20T14:06:33.499Z,49.60
2018-07-20T14:09:01.570Z,49.60
2018-07-20T14:11:30.245Z,49.80
2018-07-20T14:13:58.284Z,49.80
2018-07-20T14:16:26.350Z,49.70
2018-07-20T14:18:54.447Z,49.60
2018-07-20T14:21:22.542Z,49.90
2018-07-20T14:23:50.619Z,49.60
2018-07-20T14:26:18.746Z,49.60
2018-07-20T14:28:46.806Z,50.20
2018-07-20T14:33:42.894Z,49.60
2018-07-20T14:36:10.991Z,49.30
2018-07-20T14:38:39.062Z,49.60
2018-07-20T14:41:07.130Z,49.80
2018-07-20T14:43:35.274Z,49.60
2018-07-20T14:46:03.607Z,49.50
2018-07-20T14:48:31.718Z,49.20
2018-07-20T14:50:59.848Z,49.30
2018-07-20T14:53:27.961Z,49.20
2018-07-20T14:55:56.075Z,49.10
2018-07-20T14:58:24.205Z,49.10
2018-07-20T15:00:52.258Z,49.20
2018-07-20T15:03:20.359Z,49.10
2018-07-20T15:05:48.446Z,48.90
2018-07-20T15:08:16.588Z,48.70
2018-07-20T15:10:44.675Z,48.70
2018-07-20T15:13:12.785Z,48.80
2018-07-20T15:15:40.843Z,48.70
2018-07-20T15:18:08.944Z,48.70
2018-07-20T15:20:37.039Z,48.60
2018-07-20T15:23:05.431Z,48.70
2018-07-20T15:25:33.535Z,52.80
2018-07-20T15:28:01.600Z,50.10
2018-07-20T15:30:29.690Z,49.20
2018-07-20T15:35:25.786Z,49.30
2018-07-20T15:37:53.951Z,49.30
2018-07-20T15:40:22.351Z,49.20
2018-07-20T15:42:50.422Z,49.20
2018-07-20T15:45:18.507Z,49.20
2018-07-20T15:47:46.586Z,49.20
2018-07-20T15:50:14.919Z,49.80
2018-07-20T15:53:36.249Z,49.10
2018-07-20T15:55:11.079Z,49.60
2018-07-20T15:57:39.618Z,49.00
2018-07-20T16:00:08.085Z,48.70
2018-07-20T16:05:04.052Z,48.50
2018-07-20T16:07:32.151Z,48.50
2018-07-20T16:10:00.218Z,48.50
2018-07-20T16:12:28.295Z,48.40
2018-07-20T16:14:56.363Z,48.30
2018-07-20T16:17:24.450Z,48.30
2018-07-20T16:19:52.512Z,48.20
2018-07-20T16:22:20.636Z,48.30
2018-07-20T16:24:48.738Z,48.20
2018-07-20T16:27:17.170Z,48.30
2018-07-20T16:29:45.248Z,48.30
2018-07-20T16:32:13.338Z,48.30
2018-07-20T16:34:41.558Z,48.30
2018-07-20T16:37:09.623Z,48.30
2018-07-20T16:39:37.710Z,49.10
2018-07-20T16:42:05.887Z,48.20
2018-07-20T16:44:34.019Z,48.30
2018-07-20T16:47:02.160Z,45.10
2018-07-20T16:49:30.250Z,42.80
2018-07-20T16:51:58.315Z,41.70
2018-07-20T16:54:26.391Z,42.30
2018-07-20T16:56:54.518Z,39.40
2018-07-20T16:59:22.575Z,40.10
2018-07-20T17:01:50.639Z,37.70
2018-07-20T17:04:19.348Z,37.70
2018-07-20T17:06:47.402Z,37.20
2018-07-20T17:09:15.475Z,37.50
2018-07-20T17:11:43.539Z,37.80
2018-07-20T17:14:11.627Z,37.10
2018-07-20T17:16:39.683Z,37.30
2018-07-20T17:19:07.758Z,36.80
2018-07-20T17:21:35.956Z,37.00
2018-07-20T17:24:04.128Z,35.90
2018-07-20T17:26:32.218Z,36.20
2018-07-20T17:29:00.290Z,36.80
2018-07-20T17:31:28.363Z,36.80
2018-07-20T17:33:56.451Z,35.70
2018-07-20T17:36:24.891Z,36.20
2018-07-20T17:38:53.368Z,35.70
2018-07-20T17:41:21.450Z,35.90
2018-07-20T17:43:49.539Z,36.90
2018-07-20T17:46:17.824Z,38.60
2018-07-20T17:48:46.265Z,39.00
2018-07-20T17:51:14.640Z,39.90
2018-07-20T17:53:42.710Z,39.20
2018-07-20T17:56:10.886Z,39.50
2018-07-20T17:58:38.977Z,39.80
2018-07-20T18:01:07.049Z,40.10
2018-07-20T18:03:35.193Z,40.30
2018-07-20T18:06:03.275Z,40.50
2018-07-20T18:08:31.367Z,40.70
2018-07-20T18:10:59.462Z,40.80
2018-07-20T18:13:27.534Z,40.90
2018-07-20T18:15:55.882Z,41.30
2018-07-20T18:18:23.979Z,41.20
2018-07-20T18:20:52.078Z,41.30
2018-07-20T18:23:20.174Z,41.50
2018-07-20T18:25:48.270Z,41.50
2018-07-20T18:28:16.343Z,41.70
2018-07-20T18:30:44.983Z,41.80
2018-07-20T18:33:13.067Z,41.90
2018-07-20T18:35:41.151Z,42.10
2018-07-20T18:38:09.239Z,42.10
2018-07-20T18:40:37.334Z,42.20
2018-07-20T18:43:05.403Z,42.30
2018-07-20T18:45:33.486Z,42.40
2018-07-20T18:48:01.587Z,42.50
2018-07-20T18:50:29.675Z,42.70
2018-07-20T18:52:58.075Z,42.70
2018-07-20T18:55:26.138Z,42.80
2018-07-20T18:57:54.226Z,42.90
2018-07-20T19:00:22.318Z,42.90
2018-07-20T19:02:50.404Z,43.00
2018-07-20T19:05:18.510Z,43.10
2018-07-20T19:07:46.820Z,43.10
2018-07-20T19:10:14.946Z,43.20
2018-07-20T19:12:43.275Z,43.30
2018-07-20T19:15:11.373Z,43.40
2018-07-20T19:17:39.590Z,43.50
2018-07-20T19:20:07.675Z,43.50
2018-07-20T19:22:35.734Z,43.50
2018-07-20T19:25:03.834Z,43.90
2018-07-20T19:27:31.907Z,43.60
2018-07-20T19:29:59.994Z,43.70
2018-07-20T19:32:28.342Z,43.80
2018-07-20T19:34:56.726Z,43.80
2018-07-20T19:37:24.790Z,43.80
2018-07-20T19:39:52.866Z,43.90
2018-07-20T19:42:20.954Z,44.00
2018-07-20T19:44:49.025Z,44.00
2018-07-20T19:47:17.087Z,44.00
2018-07-20T19:49:45.160Z,44.10
2018-07-20T19:54:41.158Z,44.10
2018-07-20T19:57:09.283Z,44.10
2018-07-20T19:59:37.355Z,44.20
2018-07-20T20:02:05.622Z,44.20
2018-07-20T20:04:33.974Z,44.30
2018-07-20T20:07:02.100Z,44.30
2018-07-20T20:09:30.167Z,44.40
2018-07-20T20:11:58.248Z,44.40
2018-07-20T20:14:26.310Z,44.40
2018-07-20T20:16:54.378Z,44.50
2018-07-20T20:19:22.791Z,44.50
2018-07-20T20:21:50.863Z,44.50
2018-07-20T20:24:19.129Z,44.50
2018-07-20T20:26:47.298Z,45.10
2018-07-20T20:29:15.650Z,44.70
2018-07-20T20:31:43.727Z,45.30
2018-07-20T20:34:11.799Z,44.70
2018-07-20T20:36:39.944Z,44.70
2018-07-20T20:39:09.799Z,44.80
2018-07-20T20:41:38.102Z,44.80
2018-07-20T20:46:34.163Z,44.90
2018-07-20T20:49:02.244Z,45.00
2018-07-20T20:51:30.314Z,44.90
2018-07-20T20:53:58.387Z,45.00
2018-07-20T20:56:26.478Z,45.00
2018-07-20T20:58:54.626Z,45.00
2018-07-20T21:01:22.697Z,45.10
2018-07-20T21:03:50.794Z,45.00
2018-07-20T21:06:19.290Z,45.10
2018-07-20T21:08:47.567Z,45.10
2018-07-20T21:11:15.638Z,45.10
2018-07-20T21:13:43.735Z,45.20
2018-07-20T21:16:11.819Z,45.20
2018-07-20T21:18:39.878Z,45.90
2018-07-20T21:21:07.970Z,45.20
2018-07-20T21:23:36.050Z,45.30
2018-07-20T21:26:04.182Z,45.30
2018-07-20T21:28:32.299Z,45.30
2018-07-20T21:31:00.403Z,45.30
2018-07-20T21:33:28.760Z,45.30
2018-07-20T21:35:56.846Z,45.40
2018-07-20T21:38:24.938Z,45.40
2018-07-20T21:40:53.015Z,45.90
2018-07-20T21:43:21.098Z,45.60
2018-07-20T21:45:49.447Z,45.30
2018-07-20T21:48:17.570Z,45.30
2018-07-20T21:50:45.684Z,45.30
2018-07-20T21:53:14.090Z,45.50
2018-07-20T21:55:42.234Z,45.40
2018-07-20T21:58:10.286Z,45.30
2018-07-20T22:00:38.367Z,45.10
2018-07-20T22:03:06.471Z,45.20
2018-07-20T22:05:34.540Z,45.20
2018-07-20T22:08:02.610Z,45.10
2018-07-20T22:10:30.690Z,45.20
2018-07-20T22:12:58.889Z,45.20
2018-07-20T22:15:26.958Z,45.90
2018-07-20T22:17:55.302Z,45.50
2018-07-20T22:20:23.379Z,45.40
2018-07-20T22:25:19.401Z,45.60
2018-07-20T22:27:47.465Z,45.60
2018-07-20T22:30:15.811Z,45.50
2018-07-20T22:32:43.880Z,45.60
2018-07-20T22:35:12.021Z,45.70
2018-07-20T22:37:40.110Z,45.70
2018-07-20T22:40:08.330Z,45.70
2018-07-20T22:45:04.531Z,45.70
2018-07-20T22:47:32.678Z,45.70
2018-07-20T22:50:00.735Z,45.60
2018-07-20T22:52:28.798Z,45.60
2018-07-20T22:54:56.910Z,45.60
2018-07-20T22:57:25.301Z,45.60
2018-07-20T22:59:53.350Z,45.70
2018-07-20T23:02:21.456Z,45.70
2018-07-20T23:04:49.518Z,45.60
2018-07-20T23:07:17.599Z,45.60
2018-07-20T23:09:45.667Z,45.60
2018-07-20T23:12:13.758Z,45.70
2018-07-20T23:19:38.182Z,45.60
2018-07-20T23:22:06.427Z,45.60
2018-07-20T23:24:34.523Z,45.70
2018-07-20T23:27:02.917Z,46.40
2018-07-20T23:29:31.020Z,45.70
2018-07-20T23:31:59.074Z,45.70
2018-07-20T23:34:27.141Z,45.70
2018-07-20T23:36:55.225Z,45.70
2018-07-20T23:39:23.334Z,45.70
2018-07-20T23:41:51.643Z,45.70
2018-07-20T23:44:19.827Z,45.70
2018-07-20T23:46:47.890Z,45.70
2018-07-20T23:49:16.063Z,45.70
2018-07-20T23:51:44.150Z,45.70
2018-07-20T23:54:12.251Z,45.80
2018-07-20T23:56:40.356Z,45.70
2018-07-20T23:59:08.415Z,45.70
